sensor_id;sensor_type;location;lat;lon;timestamp;P1;durP1;ratioP1;P2;durP2;ratioP2
71253;SDS011;59019;47.638;18.966;2023-02-13T00:00:31;41.33;;;14.83;;
71253;SDS011;59019;47.638;18.966;2023-02-13T00:02:57;35.83;;;15.40;;
71253;SDS011;59019;47.638;18.966;2023-02-13T00:05:22;39.75;;;14.88;;
71253;SDS011;59019;47.638;18.966;2023-02-13T00:07:48;35.90;;;15.30;;
71253;SDS011;59019;47.638;18.966;2023-02-13T00:10:14;30.70;;;13.30;;
71253;SDS011;59019;47.638;18.966;2023-02-13T00:12:40;30.20;;;13.93;;
71253;SDS011;59019;47.638;18.966;2023-02-13T00:15:06;33.03;;;14.07;;
71253;SDS011;59019;47.638;18.966;2023-02-13T00:17:32;36.45;;;14.75;;
71253;SDS011;59019;47.638;18.966;2023-02-13T00:19:57;33.58;;;14.20;;
71253;SDS011;59019;47.638;18.966;2023-02-13T00:22:23;37.10;;;15.05;;
71253;SDS011;59019;47.638;18.966;2023-02-13T00:24:49;35.00;;;15.70;;
71253;SDS011;59019;47.638;18.966;2023-02-13T00:27:14;34.70;;;14.70;;
71253;SDS011;59019;47.638;18.966;2023-02-13T00:29:40;33.97;;;15.00;;
71253;SDS011;59019;47.638;18.966;2023-02-13T00:32:05;33.30;;;15.17;;
71253;SDS011;59019;47.638;18.966;2023-02-13T00:34:31;35.00;;;15.20;;
71253;SDS011;59019;47.638;18.966;2023-02-13T00:36:56;37.10;;;14.60;;
71253;SDS011;59019;47.638;18.966;2023-02-13T00:39:22;37.43;;;14.20;;
71253;SDS011;59019;47.638;18.966;2023-02-13T00:41:47;33.57;;;13.83;;
71253;SDS011;59019;47.638;18.966;2023-02-13T00:44:13;35.60;;;14.70;;
71253;SDS011;59019;47.638;18.966;2023-02-13T00:46:39;32.50;;;13.73;;
71253;SDS011;59019;47.638;18.966;2023-02-13T00:49:04;33.23;;;13.40;;
71253;SDS011;59019;47.638;18.966;2023-02-13T00:51:30;31.83;;;13.25;;
71253;SDS011;59019;47.638;18.966;2023-02-13T00:53:56;29.43;;;13.40;;
71253;SDS011;59019;47.638;18.966;2023-02-13T00:56:21;33.53;;;13.97;;
71253;SDS011;59019;47.638;18.966;2023-02-13T00:58:47;33.83;;;13.52;;
71253;SDS011;59019;47.638;18.966;2023-02-13T01:01:12;31.90;;;12.83;;
71253;SDS011;59019;47.638;18.966;2023-02-13T01:03:38;29.20;;;12.10;;
71253;SDS011;59019;47.638;18.966;2023-02-13T01:06:04;28.17;;;12.10;;
71253;SDS011;59019;47.638;18.966;2023-02-13T01:08:31;24.75;;;10.95;;
71253;SDS011;59019;47.638;18.966;2023-02-13T01:10:56;27.27;;;11.80;;
71253;SDS011;59019;47.638;18.966;2023-02-13T01:13:22;25.95;;;10.60;;
71253;SDS011;59019;47.638;18.966;2023-02-13T01:15:48;28.37;;;11.37;;
71253;SDS011;59019;47.638;18.966;2023-02-13T01:18:14;31.02;;;12.32;;
71253;SDS011;59019;47.638;18.966;2023-02-13T01:20:42;25.38;;;11.13;;
71253;SDS011;59019;47.638;18.966;2023-02-13T01:23:08;26.10;;;11.30;;
71253;SDS011;59019;47.638;18.966;2023-02-13T01:25:34;27.30;;;11.05;;
71253;SDS011;59019;47.638;18.966;2023-02-13T01:28:04;31.45;;;13.52;;
71253;SDS011;59019;47.638;18.966;2023-02-13T01:30:29;28.63;;;11.70;;
71253;SDS011;59019;47.638;18.966;2023-02-13T01:32:55;31.42;;;12.93;;
71253;SDS011;59019;47.638;18.966;2023-02-13T01:35:20;31.40;;;11.95;;
71253;SDS011;59019;47.638;18.966;2023-02-13T01:37:47;32.15;;;11.65;;
71253;SDS011;59019;47.638;18.966;2023-02-13T01:40:13;27.87;;;11.10;;
71253;SDS011;59019;47.638;18.966;2023-02-13T01:42:39;29.67;;;11.50;;
71253;SDS011;59019;47.638;18.966;2023-02-13T01:45:24;25.57;;;10.50;;
71253;SDS011;59019;47.638;18.966;2023-02-13T01:47:53;26.17;;;11.00;;
71253;SDS011;59019;47.638;18.966;2023-02-13T01:50:28;22.50;;;9.77;;
71253;SDS011;59019;47.638;18.966;2023-02-13T01:53:17;24.02;;;9.18;;
71253;SDS011;59019;47.638;18.966;2023-02-13T01:55:53;23.53;;;9.07;;
71253;SDS011;59019;47.638;18.966;2023-02-13T01:58:22;21.92;;;8.95;;
71253;SDS011;59019;47.638;18.966;2023-02-13T02:00:50;23.13;;;9.05;;
71253;SDS011;59019;47.638;18.966;2023-02-13T02:03:18;19.77;;;8.33;;
71253;SDS011;59019;47.638;18.966;2023-02-13T02:06:00;23.55;;;8.60;;
71253;SDS011;59019;47.638;18.966;2023-02-13T02:08:26;22.42;;;8.55;;
71253;SDS011;59019;47.638;18.966;2023-02-13T02:10:54;21.33;;;8.73;;
71253;SDS011;59019;47.638;18.966;2023-02-13T02:13:22;21.63;;;8.02;;
71253;SDS011;59019;47.638;18.966;2023-02-13T02:15:48;20.23;;;8.57;;
71253;SDS011;59019;47.638;18.966;2023-02-13T02:18:15;22.35;;;7.95;;
71253;SDS011;59019;47.638;18.966;2023-02-13T02:32:28;22.10;;;7.35;;
71253;SDS011;59019;47.638;18.966;2023-02-13T02:51:10;22.33;;;8.97;;
71253;SDS011;59019;47.638;18.966;2023-02-13T02:53:43;22.75;;;9.25;;
71253;SDS011;59019;47.638;18.966;2023-02-13T02:56:25;23.83;;;9.40;;
71253;SDS011;59019;47.638;18.966;2023-02-13T02:59:01;19.13;;;8.13;;
71253;SDS011;59019;47.638;18.966;2023-02-13T03:01:49;22.08;;;8.98;;
71253;SDS011;59019;47.638;18.966;2023-02-13T03:04:38;22.30;;;8.67;;
71253;SDS011;59019;47.638;18.966;2023-02-13T03:07:32;23.58;;;9.93;;
71253;SDS011;59019;47.638;18.966;2023-02-13T03:10:05;26.30;;;9.73;;
71253;SDS011;59019;47.638;18.966;2023-02-13T03:12:53;23.40;;;8.60;;
71253;SDS011;59019;47.638;18.966;2023-02-13T03:15:41;20.30;;;8.40;;
71253;SDS011;59019;47.638;18.966;2023-02-13T03:18:30;22.95;;;8.68;;
71253;SDS011;59019;47.638;18.966;2023-02-13T03:21:26;21.15;;;8.48;;
71253;SDS011;59019;47.638;18.966;2023-02-13T03:26:53;20.73;;;8.23;;
71253;SDS011;59019;47.638;18.966;2023-02-13T03:32:35;22.42;;;9.32;;
71253;SDS011;59019;47.638;18.966;2023-02-13T03:35:36;27.05;;;10.63;;
71253;SDS011;59019;47.638;18.966;2023-02-13T03:38:29;23.40;;;9.02;;
71253;SDS011;59019;47.638;18.966;2023-02-13T03:46:19;14.38;;;5.93;;
71253;SDS011;59019;47.638;18.966;2023-02-13T03:48:46;13.60;;;5.68;;
71253;SDS011;59019;47.638;18.966;2023-02-13T03:51:31;18.08;;;6.13;;
71253;SDS011;59019;47.638;18.966;2023-02-13T03:54:03;15.35;;;6.32;;
71253;SDS011;59019;47.638;18.966;2023-02-13T03:56:36;20.50;;;7.13;;
71253;SDS011;59019;47.638;18.966;2023-02-13T03:59:31;21.05;;;8.60;;
71253;SDS011;59019;47.638;18.966;2023-02-13T04:02:02;19.60;;;7.70;;
71253;SDS011;59019;47.638;18.966;2023-02-13T04:07:18;15.45;;;5.68;;
71253;SDS011;59019;47.638;18.966;2023-02-13T04:10:05;18.53;;;6.97;;
71253;SDS011;59019;47.638;18.966;2023-02-13T04:15:17;20.25;;;8.77;;
71253;SDS011;59019;47.638;18.966;2023-02-13T04:17:50;22.50;;;9.45;;
71253;SDS011;59019;47.638;18.966;2023-02-13T04:20:19;29.85;;;12.52;;
71253;SDS011;59019;47.638;18.966;2023-02-13T04:22:45;39.13;;;16.20;;
71253;SDS011;59019;47.638;18.966;2023-02-13T04:25:15;43.58;;;17.02;;
71253;SDS011;59019;47.638;18.966;2023-02-13T04:27:41;37.23;;;15.47;;
71253;SDS011;59019;47.638;18.966;2023-02-13T04:30:07;29.73;;;11.80;;
71253;SDS011;59019;47.638;18.966;2023-02-13T04:32:35;23.10;;;8.43;;
71253;SDS011;59019;47.638;18.966;2023-02-13T04:35:00;17.57;;;6.77;;
71253;SDS011;59019;47.638;18.966;2023-02-13T04:37:26;14.55;;;6.03;;
71253;SDS011;59019;47.638;18.966;2023-02-13T04:39:51;14.90;;;6.00;;
71253;SDS011;59019;47.638;18.966;2023-02-13T04:42:17;15.53;;;5.43;;
71253;SDS011;59019;47.638;18.966;2023-02-13T04:44:42;17.50;;;6.63;;
71253;SDS011;59019;47.638;18.966;2023-02-13T04:47:08;17.58;;;7.05;;
71253;SDS011;59019;47.638;18.966;2023-02-13T04:49:33;28.67;;;10.83;;
71253;SDS011;59019;47.638;18.966;2023-02-13T04:51:59;38.80;;;13.93;;
71253;SDS011;59019;47.638;18.966;2023-02-13T04:54:24;36.70;;;14.83;;
71253;SDS011;59019;47.638;18.966;2023-02-13T04:56:50;44.97;;;17.10;;
71253;SDS011;59019;47.638;18.966;2023-02-13T04:59:15;43.67;;;16.97;;
71253;SDS011;59019;47.638;18.966;2023-02-13T05:01:42;42.58;;;17.60;;
71253;SDS011;59019;47.638;18.966;2023-02-13T05:04:07;59.80;;;25.27;;
71253;SDS011;59019;47.638;18.966;2023-02-13T05:06:35;62.72;;;25.13;;
71253;SDS011;59019;47.638;18.966;2023-02-13T05:09:02;47.00;;;19.27;;
71253;SDS011;59019;47.638;18.966;2023-02-13T05:11:27;38.97;;;15.65;;
71253;SDS011;59019;47.638;18.966;2023-02-13T05:13:53;27.67;;;11.33;;
71253;SDS011;59019;47.638;18.966;2023-02-13T05:16:18;24.40;;;8.70;;
71253;SDS011;59019;47.638;18.966;2023-02-13T05:18:44;21.00;;;8.82;;
71253;SDS011;59019;47.638;18.966;2023-02-13T05:21:09;20.63;;;8.63;;
71253;SDS011;59019;47.638;18.966;2023-02-13T05:23:54;21.52;;;7.90;;
71253;SDS011;59019;47.638;18.966;2023-02-13T05:26:19;19.13;;;8.20;;
71253;SDS011;59019;47.638;18.966;2023-02-13T05:28:45;20.97;;;7.93;;
71253;SDS011;59019;47.638;18.966;2023-02-13T05:31:29;19.50;;;7.50;;
71253;SDS011;59019;47.638;18.966;2023-02-13T05:33:55;32.92;;;10.48;;
71253;SDS011;59019;47.638;18.966;2023-02-13T05:36:20;38.60;;;13.60;;
71253;SDS011;59019;47.638;18.966;2023-02-13T05:38:46;48.70;;;15.27;;
71253;SDS011;59019;47.638;18.966;2023-02-13T05:41:11;41.97;;;14.57;;
71253;SDS011;59019;47.638;18.966;2023-02-13T05:43:37;48.17;;;15.80;;
71253;SDS011;59019;47.638;18.966;2023-02-13T05:46:07;46.70;;;17.73;;
71253;SDS011;59019;47.638;18.966;2023-02-13T05:48:34;51.25;;;19.75;;
71253;SDS011;59019;47.638;18.966;2023-02-13T05:51:00;56.45;;;21.58;;
71253;SDS011;59019;47.638;18.966;2023-02-13T05:53:26;55.90;;;21.92;;
71253;SDS011;59019;47.638;18.966;2023-02-13T05:55:53;53.05;;;20.85;;
71253;SDS011;59019;47.638;18.966;2023-02-13T05:58:19;62.45;;;22.70;;
71253;SDS011;59019;47.638;18.966;2023-02-13T06:00:45;54.30;;;22.50;;
71253;SDS011;59019;47.638;18.966;2023-02-13T06:03:12;56.03;;;20.95;;
71253;SDS011;59019;47.638;18.966;2023-02-13T06:05:38;55.58;;;19.35;;
71253;SDS011;59019;47.638;18.966;2023-02-13T06:08:04;42.13;;;16.67;;
71253;SDS011;59019;47.638;18.966;2023-02-13T06:10:29;37.75;;;13.75;;
71253;SDS011;59019;47.638;18.966;2023-02-13T06:12:55;31.70;;;11.67;;
71253;SDS011;59019;47.638;18.966;2023-02-13T06:15:21;27.00;;;9.83;;
71253;SDS011;59019;47.638;18.966;2023-02-13T06:17:47;22.05;;;8.40;;
71253;SDS011;59019;47.638;18.966;2023-02-13T06:20:12;19.83;;;8.30;;
71253;SDS011;59019;47.638;18.966;2023-02-13T06:22:38;25.63;;;8.88;;
71253;SDS011;59019;47.638;18.966;2023-02-13T06:25:04;37.17;;;15.60;;
71253;SDS011;59019;47.638;18.966;2023-02-13T06:27:30;45.30;;;17.95;;
71253;SDS011;59019;47.638;18.966;2023-02-13T06:29:55;45.30;;;18.20;;
71253;SDS011;59019;47.638;18.966;2023-02-13T06:32:21;42.80;;;16.15;;
71253;SDS011;59019;47.638;18.966;2023-02-13T06:34:46;39.67;;;16.97;;
71253;SDS011;59019;47.638;18.966;2023-02-13T06:37:12;40.27;;;15.57;;
71253;SDS011;59019;47.638;18.966;2023-02-13T06:39:37;39.47;;;14.88;;
71253;SDS011;59019;47.638;18.966;2023-02-13T06:42:03;47.60;;;18.20;;
71253;SDS011;59019;47.638;18.966;2023-02-13T06:44:28;39.97;;;16.70;;
71253;SDS011;59019;47.638;18.966;2023-02-13T06:46:54;40.53;;;17.13;;
71253;SDS011;59019;47.638;18.966;2023-02-13T06:49:19;41.60;;;16.43;;
71253;SDS011;59019;47.638;18.966;2023-02-13T06:51:45;44.80;;;18.67;;
71253;SDS011;59019;47.638;18.966;2023-02-13T06:54:10;57.83;;;24.27;;
71253;SDS011;59019;47.638;18.966;2023-02-13T06:56:36;64.00;;;25.67;;
71253;SDS011;59019;47.638;18.966;2023-02-13T06:59:01;73.37;;;27.23;;
71253;SDS011;59019;47.638;18.966;2023-02-13T07:01:27;51.45;;;22.73;;
71253;SDS011;59019;47.638;18.966;2023-02-13T07:03:53;48.00;;;21.48;;
71253;SDS011;59019;47.638;18.966;2023-02-13T07:06:19;48.70;;;19.37;;
71253;SDS011;59019;47.638;18.966;2023-02-13T07:08:46;42.28;;;17.98;;
71253;SDS011;59019;47.638;18.966;2023-02-13T07:11:18;46.17;;;18.90;;
71253;SDS011;59019;47.638;18.966;2023-02-13T07:13:44;43.55;;;19.33;;
71253;SDS011;59019;47.638;18.966;2023-02-13T07:16:10;46.42;;;18.33;;
71253;SDS011;59019;47.638;18.966;2023-02-13T07:18:36;42.30;;;18.33;;
71253;SDS011;59019;47.638;18.966;2023-02-13T07:21:02;50.77;;;19.27;;
71253;SDS011;59019;47.638;18.966;2023-02-13T07:23:27;41.25;;;16.38;;
71253;SDS011;59019;47.638;18.966;2023-02-13T07:25:53;39.77;;;14.67;;
71253;SDS011;59019;47.638;18.966;2023-02-13T07:28:19;29.45;;;12.40;;
71253;SDS011;59019;47.638;18.966;2023-02-13T07:30:44;22.07;;;9.47;;
71253;SDS011;59019;47.638;18.966;2023-02-13T07:33:10;26.77;;;10.27;;
71253;SDS011;59019;47.638;18.966;2023-02-13T07:35:35;30.45;;;10.15;;
71253;SDS011;59019;47.638;18.966;2023-02-13T07:38:03;28.27;;;10.43;;
71253;SDS011;59019;47.638;18.966;2023-02-13T07:40:28;26.20;;;10.48;;
71253;SDS011;59019;47.638;18.966;2023-02-13T07:42:55;22.15;;;8.85;;
71253;SDS011;59019;47.638;18.966;2023-02-13T07:45:20;23.35;;;7.90;;
71253;SDS011;59019;47.638;18.966;2023-02-13T07:47:46;21.20;;;8.23;;
71253;SDS011;59019;47.638;18.966;2023-02-13T07:50:11;19.10;;;7.40;;
71253;SDS011;59019;47.638;18.966;2023-02-13T07:52:37;27.45;;;10.32;;
71253;SDS011;59019;47.638;18.966;2023-02-13T07:55:03;28.37;;;10.10;;
71253;SDS011;59019;47.638;18.966;2023-02-13T07:57:29;26.50;;;10.30;;
71253;SDS011;59019;47.638;18.966;2023-02-13T07:59:56;27.73;;;11.35;;
71253;SDS011;59019;47.638;18.966;2023-02-13T08:02:22;31.02;;;12.80;;
71253;SDS011;59019;47.638;18.966;2023-02-13T08:04:47;41.37;;;14.87;;
71253;SDS011;59019;47.638;18.966;2023-02-13T08:07:13;35.73;;;14.80;;
71253;SDS011;59019;47.638;18.966;2023-02-13T08:09:40;36.30;;;14.02;;
71253;SDS011;59019;47.638;18.966;2023-02-13T08:12:26;28.10;;;10.90;;
71253;SDS011;59019;47.638;18.966;2023-02-13T08:14:52;28.20;;;11.27;;
71253;SDS011;59019;47.638;18.966;2023-02-13T08:17:17;34.53;;;12.93;;
71253;SDS011;59019;47.638;18.966;2023-02-13T08:19:43;28.07;;;11.20;;
71253;SDS011;59019;47.638;18.966;2023-02-13T08:22:09;28.00;;;11.63;;
71253;SDS011;59019;47.638;18.966;2023-02-13T08:24:34;25.97;;;11.23;;
71253;SDS011;59019;47.638;18.966;2023-02-13T08:27:00;28.75;;;11.10;;
71253;SDS011;59019;47.638;18.966;2023-02-13T08:29:25;25.23;;;11.25;;
71253;SDS011;59019;47.638;18.966;2023-02-13T08:31:51;27.77;;;10.73;;
71253;SDS011;59019;47.638;18.966;2023-02-13T08:34:16;26.53;;;10.60;;
71253;SDS011;59019;47.638;18.966;2023-02-13T08:36:42;24.80;;;10.55;;
71253;SDS011;59019;47.638;18.966;2023-02-13T08:39:08;23.50;;;9.00;;
71253;SDS011;59019;47.638;18.966;2023-02-13T08:41:34;24.25;;;10.00;;
71253;SDS011;59019;47.638;18.966;2023-02-13T08:44:00;21.60;;;9.43;;
71253;SDS011;59019;47.638;18.966;2023-02-13T08:46:26;21.10;;;9.00;;
71253;SDS011;59019;47.638;18.966;2023-02-13T08:48:52;21.67;;;8.75;;
71253;SDS011;59019;47.638;18.966;2023-02-13T08:51:18;20.52;;;8.07;;
71253;SDS011;59019;47.638;18.966;2023-02-13T08:53:43;21.83;;;8.80;;
71253;SDS011;59019;47.638;18.966;2023-02-13T08:56:09;16.33;;;7.53;;
71253;SDS011;59019;47.638;18.966;2023-02-13T08:58:35;16.20;;;7.47;;
71253;SDS011;59019;47.638;18.966;2023-02-13T09:01:03;16.65;;;6.88;;
71253;SDS011;59019;47.638;18.966;2023-02-13T09:03:30;16.87;;;7.10;;
71253;SDS011;59019;47.638;18.966;2023-02-13T09:05:57;18.10;;;6.82;;
71253;SDS011;59019;47.638;18.966;2023-02-13T09:08:24;17.10;;;6.93;;
71253;SDS011;59019;47.638;18.966;2023-02-13T09:10:54;17.43;;;7.20;;
71253;SDS011;59019;47.638;18.966;2023-02-13T09:13:22;15.63;;;6.95;;
71253;SDS011;59019;47.638;18.966;2023-02-13T09:15:47;16.67;;;7.00;;
71253;SDS011;59019;47.638;18.966;2023-02-13T09:18:13;16.23;;;7.27;;
71253;SDS011;59019;47.638;18.966;2023-02-13T09:20:38;15.83;;;6.60;;
71253;SDS011;59019;47.638;18.966;2023-02-13T09:23:04;18.50;;;7.00;;
71253;SDS011;59019;47.638;18.966;2023-02-13T09:25:29;16.47;;;6.90;;
71253;SDS011;59019;47.638;18.966;2023-02-13T09:27:55;14.82;;;7.13;;
71253;SDS011;59019;47.638;18.966;2023-02-13T09:30:20;18.30;;;7.22;;
71253;SDS011;59019;47.638;18.966;2023-02-13T09:32:50;17.05;;;6.95;;
71253;SDS011;59019;47.638;18.966;2023-02-13T09:35:16;15.40;;;6.80;;
71253;SDS011;59019;47.638;18.966;2023-02-13T09:37:43;12.43;;;6.00;;
71253;SDS011;59019;47.638;18.966;2023-02-13T09:40:20;13.65;;;6.78;;
71253;SDS011;59019;47.638;18.966;2023-02-13T09:43:13;15.65;;;6.82;;
71253;SDS011;59019;47.638;18.966;2023-02-13T09:45:46;15.70;;;6.80;;
71253;SDS011;59019;47.638;18.966;2023-02-13T09:48:28;17.17;;;6.60;;
71253;SDS011;59019;47.638;18.966;2023-02-13T09:51:00;14.70;;;6.90;;
71253;SDS011;59019;47.638;18.966;2023-02-13T09:53:26;17.23;;;7.72;;
71253;SDS011;59019;47.638;18.966;2023-02-13T10:01:13;14.63;;;7.22;;
71253;SDS011;59019;47.638;18.966;2023-02-13T10:04:19;26.48;;;10.73;;
71253;SDS011;59019;47.638;18.966;2023-02-13T10:09:49;22.33;;;9.93;;
71253;SDS011;59019;47.638;18.966;2023-02-13T10:15:04;18.45;;;8.77;;
71253;SDS011;59019;47.638;18.966;2023-02-13T10:17:53;17.70;;;7.28;;
71253;SDS011;59019;47.638;18.966;2023-02-13T10:20:33;14.35;;;7.50;;
71253;SDS011;59019;47.638;18.966;2023-02-13T10:23:23;19.80;;;9.50;;
71253;SDS011;59019;47.638;18.966;2023-02-13T10:26:07;14.70;;;7.47;;
71253;SDS011;59019;47.638;18.966;2023-02-13T10:28:45;21.20;;;8.52;;
71253;SDS011;59019;47.638;18.966;2023-02-13T10:31:39;20.45;;;9.02;;
71253;SDS011;59019;47.638;18.966;2023-02-13T10:34:10;51.28;;;24.10;;
71253;SDS011;59019;47.638;18.966;2023-02-13T10:36:41;19.87;;;8.57;;
71253;SDS011;59019;47.638;18.966;2023-02-13T10:39:29;19.70;;;8.90;;
71253;SDS011;59019;47.638;18.966;2023-02-13T11:01:56;18.95;;;8.80;;
71253;SDS011;59019;47.638;18.966;2023-02-13T11:04:27;22.27;;;8.80;;
71253;SDS011;59019;47.638;18.966;2023-02-13T11:07:00;16.88;;;8.07;;
71253;SDS011;59019;47.638;18.966;2023-02-13T11:09:27;17.13;;;8.43;;
71253;SDS011;59019;47.638;18.966;2023-02-13T11:11:58;25.27;;;13.60;;
71253;SDS011;59019;47.638;18.966;2023-02-13T11:17:21;21.10;;;10.03;;
71253;SDS011;59019;47.638;18.966;2023-02-13T11:19:50;22.45;;;10.77;;
71253;SDS011;59019;47.638;18.966;2023-02-13T11:22:51;19.10;;;10.27;;
71253;SDS011;59019;47.638;18.966;2023-02-13T11:25:17;20.67;;;9.93;;
71253;SDS011;59019;47.638;18.966;2023-02-13T11:27:44;21.17;;;9.98;;
71253;SDS011;59019;47.638;18.966;2023-02-13T11:33:04;21.42;;;10.10;;
71253;SDS011;59019;47.638;18.966;2023-02-13T11:35:45;16.45;;;8.50;;
71253;SDS011;59019;47.638;18.966;2023-02-13T11:38:22;18.73;;;8.70;;
71253;SDS011;59019;47.638;18.966;2023-02-13T11:40:49;18.85;;;9.02;;
71253;SDS011;59019;47.638;18.966;2023-02-13T11:43:28;15.77;;;7.73;;
71253;SDS011;59019;47.638;18.966;2023-02-13T11:46:15;16.50;;;7.68;;
71253;SDS011;59019;47.638;18.966;2023-02-13T11:51:44;12.80;;;5.55;;
71253;SDS011;59019;47.638;18.966;2023-02-13T11:56:52;12.33;;;4.83;;
71253;SDS011;59019;47.638;18.966;2023-02-13T11:59:39;11.20;;;5.13;;
71253;SDS011;59019;47.638;18.966;2023-02-13T12:02:26;12.20;;;4.78;;
71253;SDS011;59019;47.638;18.966;2023-02-13T12:04:54;11.77;;;4.88;;
71253;SDS011;59019;47.638;18.966;2023-02-13T12:07:46;10.25;;;4.53;;
71253;SDS011;59019;47.638;18.966;2023-02-13T12:15:16;12.63;;;4.80;;
71253;SDS011;59019;47.638;18.966;2023-02-13T12:17:45;12.90;;;4.93;;
71253;SDS011;59019;47.638;18.966;2023-02-13T12:20:14;11.40;;;4.80;;
71253;SDS011;59019;47.638;18.966;2023-02-13T12:28:02;10.65;;;4.65;;
71253;SDS011;59019;47.638;18.966;2023-02-13T12:30:40;12.15;;;4.47;;
71253;SDS011;59019;47.638;18.966;2023-02-13T12:44:36;14.30;;;6.50;;
71253;SDS011;59019;47.638;18.966;2023-02-13T12:47:30;15.30;;;7.10;;
71253;SDS011;59019;47.638;18.966;2023-02-13T13:10:18;22.33;;;9.30;;
71253;SDS011;59019;47.638;18.966;2023-02-13T13:15:34;18.70;;;8.20;;
71253;SDS011;59019;47.638;18.966;2023-02-13T13:21:02;18.97;;;8.37;;
71253;SDS011;59019;47.638;18.966;2023-02-13T13:23:36;25.65;;;9.73;;
71253;SDS011;59019;47.638;18.966;2023-02-13T13:26:24;20.45;;;9.07;;
71253;SDS011;59019;47.638;18.966;2023-02-13T13:29:02;22.33;;;9.90;;
71253;SDS011;59019;47.638;18.966;2023-02-13T13:31:36;20.50;;;9.10;;
71253;SDS011;59019;47.638;18.966;2023-02-13T13:34:04;17.43;;;8.60;;
71253;SDS011;59019;47.638;18.966;2023-02-13T13:45:00;19.27;;;8.20;;
71253;SDS011;59019;47.638;18.966;2023-02-13T13:50:44;19.00;;;8.02;;
71253;SDS011;59019;47.638;18.966;2023-02-13T13:53:15;17.25;;;8.30;;
71253;SDS011;59019;47.638;18.966;2023-02-13T14:03:41;14.23;;;7.20;;
71253;SDS011;59019;47.638;18.966;2023-02-13T14:09:35;18.38;;;8.25;;
71253;SDS011;59019;47.638;18.966;2023-02-13T14:14:57;16.60;;;7.90;;
71253;SDS011;59019;47.638;18.966;2023-02-13T14:31:22;38.40;;;16.00;;
71253;SDS011;59019;47.638;18.966;2023-02-13T14:40:08;21.13;;;9.93;;
71253;SDS011;59019;47.638;18.966;2023-02-13T14:42:34;19.87;;;7.87;;
71253;SDS011;59019;47.638;18.966;2023-02-13T14:45:01;20.98;;;8.50;;
71253;SDS011;59019;47.638;18.966;2023-02-13T14:47:36;21.17;;;9.18;;
71253;SDS011;59019;47.638;18.966;2023-02-13T14:50:05;17.00;;;8.05;;
71253;SDS011;59019;47.638;18.966;2023-02-13T14:52:33;22.45;;;8.82;;
71253;SDS011;59019;47.638;18.966;2023-02-13T14:55:02;20.67;;;9.27;;
71253;SDS011;59019;47.638;18.966;2023-02-13T14:57:36;24.90;;;10.00;;
71253;SDS011;59019;47.638;18.966;2023-02-13T15:02:51;21.65;;;9.70;;
71253;SDS011;59019;47.638;18.966;2023-02-13T15:05:20;29.08;;;12.77;;
71253;SDS011;59019;47.638;18.966;2023-02-13T15:10:52;15.27;;;6.45;;
71253;SDS011;59019;47.638;18.966;2023-02-13T15:13:20;14.85;;;6.10;;
71253;SDS011;59019;47.638;18.966;2023-02-13T15:15:51;16.92;;;7.20;;
71253;SDS011;59019;47.638;18.966;2023-02-13T15:18:23;22.27;;;9.63;;
71253;SDS011;59019;47.638;18.966;2023-02-13T15:20:55;18.47;;;8.07;;
71253;SDS011;59019;47.638;18.966;2023-02-13T15:23:27;15.93;;;7.70;;
71253;SDS011;59019;47.638;18.966;2023-02-13T15:26:02;16.98;;;7.47;;
71253;SDS011;59019;47.638;18.966;2023-02-13T15:28:30;20.50;;;8.82;;
71253;SDS011;59019;47.638;18.966;2023-02-13T15:30:58;18.15;;;7.40;;
71253;SDS011;59019;47.638;18.966;2023-02-13T15:33:27;16.27;;;7.33;;
71253;SDS011;59019;47.638;18.966;2023-02-13T15:36:12;14.38;;;6.50;;
71253;SDS011;59019;47.638;18.966;2023-02-13T15:38:41;15.70;;;7.57;;
71253;SDS011;59019;47.638;18.966;2023-02-13T15:41:13;38.50;;;13.70;;
71253;SDS011;59019;47.638;18.966;2023-02-13T15:43:47;53.78;;;17.83;;
71253;SDS011;59019;47.638;18.966;2023-02-13T15:46:24;34.10;;;12.52;;
71253;SDS011;59019;47.638;18.966;2023-02-13T15:49:05;25.92;;;10.18;;
71253;SDS011;59019;47.638;18.966;2023-02-13T15:51:33;16.90;;;7.00;;
71253;SDS011;59019;47.638;18.966;2023-02-13T15:54:03;14.60;;;5.97;;
71253;SDS011;59019;47.638;18.966;2023-02-13T15:56:31;17.10;;;4.97;;
71253;SDS011;59019;47.638;18.966;2023-02-13T15:58:58;12.50;;;5.57;;
71253;SDS011;59019;47.638;18.966;2023-02-13T16:01:25;13.05;;;4.63;;
71253;SDS011;59019;47.638;18.966;2023-02-13T16:03:58;13.20;;;4.67;;
71253;SDS011;59019;47.638;18.966;2023-02-13T16:06:30;22.05;;;6.15;;
71253;SDS011;59019;47.638;18.966;2023-02-13T16:08:57;14.45;;;5.35;;
71253;SDS011;59019;47.638;18.966;2023-02-13T16:14:15;12.93;;;4.93;;
71253;SDS011;59019;47.638;18.966;2023-02-13T16:19:20;15.82;;;4.70;;
71253;SDS011;59019;47.638;18.966;2023-02-13T16:21:47;11.40;;;5.05;;
71253;SDS011;59019;47.638;18.966;2023-02-13T16:24:13;16.02;;;4.93;;
71253;SDS011;59019;47.638;18.966;2023-02-13T16:26:40;15.25;;;5.10;;
71253;SDS011;59019;47.638;18.966;2023-02-13T16:29:08;10.17;;;4.40;;
71253;SDS011;59019;47.638;18.966;2023-02-13T16:31:36;24.83;;;7.70;;
71253;SDS011;59019;47.638;18.966;2023-02-13T16:36:58;18.30;;;6.40;;
71253;SDS011;59019;47.638;18.966;2023-02-13T16:39:28;33.57;;;13.40;;
71253;SDS011;59019;47.638;18.966;2023-02-13T16:41:56;22.50;;;8.27;;
71253;SDS011;59019;47.638;18.966;2023-02-13T16:44:30;11.60;;;4.95;;
71253;SDS011;59019;47.638;18.966;2023-02-13T16:46:58;12.40;;;5.03;;
71253;SDS011;59019;47.638;18.966;2023-02-13T16:49:26;13.53;;;6.50;;
71253;SDS011;59019;47.638;18.966;2023-02-13T16:55:00;14.63;;;6.80;;
71253;SDS011;59019;47.638;18.966;2023-02-13T16:57:33;14.07;;;5.28;;
71253;SDS011;59019;47.638;18.966;2023-02-13T17:00:18;14.02;;;5.60;;
71253;SDS011;59019;47.638;18.966;2023-02-13T17:02:46;16.97;;;6.90;;
71253;SDS011;59019;47.638;18.966;2023-02-13T17:05:23;13.20;;;6.10;;
71253;SDS011;59019;47.638;18.966;2023-02-13T17:07:54;13.90;;;6.03;;
71253;SDS011;59019;47.638;18.966;2023-02-13T17:12:54;13.00;;;5.55;;
71253;SDS011;59019;47.638;18.966;2023-02-13T17:15:23;14.73;;;5.63;;
71253;SDS011;59019;47.638;18.966;2023-02-13T17:17:50;15.43;;;8.02;;
71253;SDS011;59019;47.638;18.966;2023-02-13T17:20:22;14.88;;;6.00;;
71253;SDS011;59019;47.638;18.966;2023-02-13T17:22:51;15.20;;;5.53;;
71253;SDS011;59019;47.638;18.966;2023-02-13T17:25:23;16.35;;;6.50;;
71253;SDS011;59019;47.638;18.966;2023-02-13T17:27:51;17.20;;;8.37;;
71253;SDS011;59019;47.638;18.966;2023-02-13T17:30:25;14.88;;;8.05;;
71253;SDS011;59019;47.638;18.966;2023-02-13T17:33:04;16.02;;;6.95;;
71253;SDS011;59019;47.638;18.966;2023-02-13T17:35:31;17.85;;;6.85;;
71253;SDS011;59019;47.638;18.966;2023-02-13T17:37:57;17.93;;;7.97;;
71253;SDS011;59019;47.638;18.966;2023-02-13T17:40:23;17.77;;;7.28;;
71253;SDS011;59019;47.638;18.966;2023-02-13T17:42:52;26.52;;;10.90;;
71253;SDS011;59019;47.638;18.966;2023-02-13T17:45:19;20.43;;;8.90;;
71253;SDS011;59019;47.638;18.966;2023-02-13T17:47:47;27.48;;;12.40;;
71253;SDS011;59019;47.638;18.966;2023-02-13T17:50:13;25.05;;;10.98;;
71253;SDS011;59019;47.638;18.966;2023-02-13T17:52:41;21.47;;;8.63;;